Nearby METAR Reports

 

KSJC - San Jose, California, USA
Distance from station: NE 9mi, 14km
Updated: Sun, Aug-25-2019 5:53am CDT
Clear
Clear
 Wind from NNW
Wind: NNW 5 mph , 7 km/h
Temperature: 64°F , 18°C
Dew Point: 61°F , 16°C
Humidity: 88%
Barometer: 29.97 inHg , 1014.9 hPa
Clouds: Clear
Visibility: 10 miles , 16 km
2019/08/25 10:53 KSJC 251053Z AUTO 34004KT 10SM CLR 18/16 A2997 RMK AO2 SLP148 T01780161 TSNO
KNUQ - Moffett Nas/Mtn, California, USA
Distance from station: N 9mi, 14km
Updated: Sun, Aug-25-2019 5:56am CDT
Overcast
Overcast
 Wind from N
Wind: N 5 mph , 7 km/h
Temperature: 64°F , 18°C
Dew Point: 61°F , 16°C
Humidity: 88%
Barometer: 29.97 inHg , 1014.9 hPa
Clouds: Overcast
Visibility: 10 miles , 16 km
Cloud details: Overcast 700 ft
2019/08/25 10:56 KNUQ 251056Z 36004KT 10SM OVC007 18/16 A2997 RMK AO2 SLP152 T01780161
 
KPAO - Palo Alto, California, USA
Distance from station: NNW 14mi, 23km
Updated: Sat, Aug-24-2019 10:47pm CDT
NOT Current
Clear
Clear
 Wind from NW
Wind: NW 8 mph , 13 km/h
Temperature: 66°F , 19°C
Dew Point: 61°F , 16°C
Humidity: 83%
Barometer: 29.94 inHg , 1013.9 hPa
Clouds: Clear
Visibility: 10 miles , 16 km
2019/08/25 03:47 KPAO 250347Z 31007KT 10SM SKC 19/16 A2994 RMK LAST.GPS N/A NIGHT
KRHV - San Jose/Reid, California, USA
Distance from station: ENE 12mi, 19km
Updated: Sat, Aug-24-2019 11:55pm CDT
NOT Current
Clear
Clear
 Wind from NW
Wind: NW 6 mph , 9 km/h
Temperature: 68°F , 20°C
Dew Point: 61°F , 16°C
Humidity: 78%
Barometer: 29.96 inHg , 1014.6 hPa
Clouds: Clear
Visibility: 10 miles , 16 km
2019/08/25 04:55 KRHV 250455Z 31005KT 10SM SKC 20/16 A2996 RMK LAST
 
KOAK - Oakland, California, USA
Distance from station: NNW 31mi, 50km
Updated: Sun, Aug-25-2019 5:53am CDT
Few Clouds
Few Clouds
 Wind from NNE
Wind: NNE 3 mph , 6 km/h
Temperature: 61°F , 16°C
Dew Point: 55°F , 13°C
Humidity: 83%
Barometer: 29.98 inHg , 1015.2 hPa
Clouds: Few Clouds
Visibility: 9 miles , 14 km
Cloud details: Few Clouds 600 ft
2019/08/25 10:53 KOAK 251053Z 02003KT 9SM FEW006 16/13 A2998 RMK AO2 SLP150 T01560133
KSQL - San Carlos Airpo, California, USA
Distance from station: NW 21mi, 34km
Updated: Sat, Aug-24-2019 10:47pm CDT
NOT Current
Clear
Clear
 Wind from NNW
Wind: NNW 3 mph , 6 km/h
Temperature: 66°F , 19°C
Dew Point: 59°F , 15°C
Humidity: 78%
Barometer: 29.94 inHg , 1013.9 hPa
Clouds: Clear
Visibility: 10 miles , 16 km
2019/08/25 03:47 KSQL 250347Z 34003KT 10SM SKC 19/15 A2994 RMK LAST
 
KSFO - San Francisco, California, USA
Distance from station: NW 30mi, 49km
Updated: Sun, Aug-25-2019 5:56am CDT
Few Clouds
Few Clouds
 Wind from W
Wind: W 8 mph , 13 km/h
Temperature: 59°F , 15°C
Dew Point: 55°F , 13°C
Humidity: 88%
Barometer: 29.97 inHg , 1014.9 hPa
Clouds: Few Clouds
Visibility: 10 miles , 16 km
Cloud details: Few Clouds 100 ft
2019/08/25 10:56 KSFO 251056Z 28007KT 10SM FEW001 15/13 A2997 RMK AO2 SLP148 T01500133
KE16 - San Martin, California, USA
Distance from station: ESE 27mi, 43km
Updated: Mon, Aug-05-2019 12:10pm CDT
NOT Current
Clear
Clear
 Wind from ESE
Wind: ESE 12 mph , 19 km/h
Temperature: 66°F , 19°C
Dew Point: 57°F , 14°C
Humidity: 73%
Barometer: 30.03 inHg , 1016.9 hPa
Clouds: Clear
Visibility: 10 miles , 16 km
2019/08/05 17:10 KE16 051710Z AUTO 12010KT 10SM CLR 19/14 A3003 RMK AO2
 
KWVI - Watsonville, California, USA
Distance from station: SSE 27mi, 44km
Updated: Sun, Aug-25-2019 5:53am CDT
Mist, Overcast
Mist, Overcast
 Wind from calm
Wind: Calm
Temperature: 61°F , 16°C
Dew Point: 57°F , 14°C
Humidity: 88%
Barometer: 29.98 inHg , 1015.2 hPa
Summary: Mist
Clouds: Overcast
Visibility: 3 miles , 5 km
Cloud details: Overcast 300 ft
2019/08/25 10:53 KWVI 251053Z AUTO 00000KT 3SM BR OVC003 16/14 A2998 RMK AO2 SLP150 T01560139
KHAF - Half Moon Bay, California, USA
Distance from station: WNW 31mi, 50km
Updated: Sun, Aug-25-2019 6:15am CDT
Fog, Overcast
Fog, Overcast
 Wind from calm
Wind: Calm
Temperature: 57°F , 14°C
Dew Point: 57°F , 14°C
Humidity: 100%
Barometer: 29.98 inHg , 1015.2 hPa
Summary: Fog
Clouds: Overcast
Visibility: 1/2 mile , 0.8 km
Cloud details: Overcast 300 ft
2019/08/25 11:15 KHAF 251115Z AUTO 00000KT 1/2SM FG OVC003 14/14 A2998 RMK AO2
 
KHWD - Hayward, California, USA
Distance from station: N 28mi, 44km
Updated: Sun, Aug-25-2019 5:54am CDT
Clear
Clear
 Wind from calm
Wind: Calm
Temperature: 61°F , 16°C
Dew Point: 57°F , 14°C
Humidity: 88%
Barometer: 29.97 inHg , 1014.9 hPa
Clouds: Clear
Visibility: 10 miles , 16 km
2019/08/25 10:54 KHWD 251054Z AUTO 00000KT 10SM CLR 16/14 A2997 RMK AO2 SLP156 T01610139
KLVK - Livermore, California, USA
Distance from station: NNE 31mi, 51km
Updated: Sun, Aug-25-2019 5:53am CDT
Clear
Clear
 Wind from NW
Wind: NW 3 mph , 6 km/h
Temperature: 66°F , 19°C
Dew Point: 55°F , 13°C
Humidity: 68%
Barometer: 29.96 inHg , 1014.6 hPa
Clouds: Clear
Visibility: 10 miles , 16 km
2019/08/25 10:53 KLVK 251053Z AUTO 31003KT 10SM CLR 19/13 A2996 RMK AO2 SLP140 T01890133